sensor_id;sensor_type;location;lat;lon;timestamp;pressure;altitude;pressure_sealevel;temperature;humidity
11648;BME280;5880;52.342;9.662;2023-04-28T00:01:47;101069.63;;;13.87;33.29
11648;BME280;5880;52.342;9.662;2023-04-28T00:04:13;101062.94;;;13.83;33.18
11648;BME280;5880;52.342;9.662;2023-04-28T00:06:39;101059.84;;;13.79;33.27
11648;BME280;5880;52.342;9.662;2023-04-28T00:09:06;101060.69;;;13.80;33.29
11648;BME280;5880;52.342;9.662;2023-04-28T00:11:36;101059.50;;;13.76;33.27
11648;BME280;5880;52.342;9.662;2023-04-28T00:14:03;101064.16;;;13.75;33.34
11648;BME280;5880;52.342;9.662;2023-04-28T00:16:29;101055.31;;;13.73;33.20
11648;BME280;5880;52.342;9.662;2023-04-28T00:18:54;101052.56;;;13.73;33.37
11648;BME280;5880;52.342;9.662;2023-04-28T00:21:21;101054.50;;;13.72;33.61
11648;BME280;5880;52.342;9.662;2023-04-28T00:23:46;101051.16;;;13.70;33.47
11648;BME280;5880;52.342;9.662;2023-04-28T00:26:12;101041.72;;;13.66;33.51
11648;BME280;5880;52.342;9.662;2023-04-28T00:28:38;101042.53;;;13.67;33.64
11648;BME280;5880;52.342;9.662;2023-04-28T00:31:10;101033.25;;;13.68;33.51
11648;BME280;5880;52.342;9.662;2023-04-28T00:33:38;101032.66;;;13.66;33.55
11648;BME280;5880;52.342;9.662;2023-04-28T00:36:04;101037.91;;;13.67;33.61
11648;BME280;5880;52.342;9.662;2023-04-28T00:38:30;101027.97;;;13.66;33.59
11648;BME280;5880;52.342;9.662;2023-04-28T00:40:56;101035.16;;;13.67;33.38
11648;BME280;5880;52.342;9.662;2023-04-28T00:43:22;101029.06;;;13.65;33.70
11648;BME280;5880;52.342;9.662;2023-04-28T00:45:49;101024.91;;;13.63;33.62
11648;BME280;5880;52.342;9.662;2023-04-28T00:48:15;101017.41;;;13.58;33.65
11648;BME280;5880;52.342;9.662;2023-04-28T00:50:43;101020.47;;;13.62;33.85
11648;BME280;5880;52.342;9.662;2023-04-28T00:53:10;101016.06;;;13.61;33.74
11648;BME280;5880;52.342;9.662;2023-04-28T00:55:37;101009.25;;;13.63;33.67
11648;BME280;5880;52.342;9.662;2023-04-28T00:58:05;101014.97;;;13.62;33.71
11648;BME280;5880;52.342;9.662;2023-04-28T01:00:31;101006.41;;;13.58;33.64
11648;BME280;5880;52.342;9.662;2023-04-28T01:02:58;100999.59;;;13.61;33.74
11648;BME280;5880;52.342;9.662;2023-04-28T01:05:28;100996.84;;;13.61;33.76
11648;BME280;5880;52.342;9.662;2023-04-28T01:07:54;100991.59;;;13.59;33.66
11648;BME280;5880;52.342;9.662;2023-04-28T01:10:20;100996.03;;;13.60;33.69
11648;BME280;5880;52.342;9.662;2023-04-28T01:12:46;100989.94;;;13.58;33.74
11648;BME280;5880;52.342;9.662;2023-04-28T01:15:17;100992.41;;;13.60;33.66
11648;BME280;5880;52.342;9.662;2023-04-28T01:17:44;100995.16;;;13.60;34.15
11648;BME280;5880;52.342;9.662;2023-04-28T01:20:10;100987.19;;;13.58;33.88
11648;BME280;5880;52.342;9.662;2023-04-28T01:22:35;100990.75;;;13.59;33.82
11648;BME280;5880;52.342;9.662;2023-04-28T01:25:01;100992.69;;;13.58;33.84
11648;BME280;5880;52.342;9.662;2023-04-28T01:27:28;101001.97;;;13.57;33.87
11648;BME280;5880;52.342;9.662;2023-04-28T01:29:54;100990.16;;;13.57;33.75
11648;BME280;5880;52.342;9.662;2023-04-28T01:32:20;100987.66;;;13.55;33.94
11648;BME280;5880;52.342;9.662;2023-04-28T01:34:45;100984.06;;;13.55;33.97
11648;BME280;5880;52.342;9.662;2023-04-28T01:37:12;100981.56;;;13.53;33.82
11648;BME280;5880;52.342;9.662;2023-04-28T01:39:37;100982.28;;;13.48;33.92
11648;BME280;5880;52.342;9.662;2023-04-28T01:42:03;100974.66;;;13.50;33.91
11648;BME280;5880;52.342;9.662;2023-04-28T01:44:29;100970.47;;;13.48;34.06
11648;BME280;5880;52.342;9.662;2023-04-28T01:46:54;100965.47;;;13.45;34.13
11648;BME280;5880;52.342;9.662;2023-04-28T01:49:20;100963.47;;;13.40;34.08
11648;BME280;5880;52.342;9.662;2023-04-28T01:51:46;100959.91;;;13.40;34.15
11648;BME280;5880;52.342;9.662;2023-04-28T01:54:11;100963.47;;;13.40;34.19
11648;BME280;5880;52.342;9.662;2023-04-28T01:56:37;100955.22;;;13.40;34.23
11648;BME280;5880;52.342;9.662;2023-04-28T01:59:03;100955.47;;;13.39;34.15
11648;BME280;5880;52.342;9.662;2023-04-28T02:01:28;100948.31;;;13.38;34.19
11648;BME280;5880;52.342;9.662;2023-04-28T02:03:54;100954.31;;;13.35;34.24
11648;BME280;5880;52.342;9.662;2023-04-28T02:06:20;100937.84;;;13.23;34.42
11648;BME280;5880;52.342;9.662;2023-04-28T02:08:46;100940.31;;;13.24;34.44
11648;BME280;5880;52.342;9.662;2023-04-28T02:11:12;100946.06;;;13.23;34.44
11648;BME280;5880;52.342;9.662;2023-04-28T02:13:37;100939.47;;;13.24;34.48
11648;BME280;5880;52.342;9.662;2023-04-28T02:16:03;100933.41;;;13.22;34.38
11648;BME280;5880;52.342;9.662;2023-04-28T02:18:29;100923.75;;;13.19;34.46
11648;BME280;5880;52.342;9.662;2023-04-28T02:20:55;100929.00;;;13.21;34.57
11648;BME280;5880;52.342;9.662;2023-04-28T02:23:21;100932.81;;;13.20;34.58
11648;BME280;5880;52.342;9.662;2023-04-28T02:25:46;100914.59;;;13.14;34.50
11648;BME280;5880;52.342;9.662;2023-04-28T02:28:12;100913.72;;;13.13;34.50
11648;BME280;5880;52.342;9.662;2023-04-28T02:30:38;100912.06;;;13.12;34.65
11648;BME280;5880;52.342;9.662;2023-04-28T02:33:04;100907.06;;;13.09;34.41
11648;BME280;5880;52.342;9.662;2023-04-28T02:35:29;100908.41;;;13.06;34.58
11648;BME280;5880;52.342;9.662;2023-04-28T02:37:55;100901.81;;;13.07;34.64
11648;BME280;5880;52.342;9.662;2023-04-28T02:40:21;100895.13;;;13.03;34.66
11648;BME280;5880;52.342;9.662;2023-04-28T02:42:46;100895.72;;;13.05;34.49
11648;BME280;5880;52.342;9.662;2023-04-28T02:45:12;100893.00;;;13.05;34.55
11648;BME280;5880;52.342;9.662;2023-04-28T02:47:38;100899.56;;;13.04;34.51
11648;BME280;5880;52.342;9.662;2023-04-28T02:50:04;100897.28;;;13.01;34.80
11648;BME280;5880;52.342;9.662;2023-04-28T02:52:30;100895.84;;;12.99;34.79
11648;BME280;5880;52.342;9.662;2023-04-28T02:54:55;100884.06;;;12.98;34.96
11648;BME280;5880;52.342;9.662;2023-04-28T02:57:23;100883.22;;;12.98;34.93
11648;BME280;5880;52.342;9.662;2023-04-28T02:59:49;100889.53;;;12.98;34.95
11648;BME280;5880;52.342;9.662;2023-04-28T03:02:14;100884.56;;;12.95;34.87
11648;BME280;5880;52.342;9.662;2023-04-28T03:04:40;100875.97;;;12.92;34.82
11648;BME280;5880;52.342;9.662;2023-04-28T03:07:06;100878.09;;;12.89;34.85
11648;BME280;5880;52.342;9.662;2023-04-28T03:09:32;100874.19;;;12.85;34.95
11648;BME280;5880;52.342;9.662;2023-04-28T03:11:57;100853.94;;;12.75;34.97
11648;BME280;5880;52.342;9.662;2023-04-28T03:14:23;100861.66;;;12.78;35.08
11648;BME280;5880;52.342;9.662;2023-04-28T03:16:49;100858.59;;;12.74;35.01
11648;BME280;5880;52.342;9.662;2023-04-28T03:19:15;100858.34;;;12.76;35.26
11648;BME280;5880;52.342;9.662;2023-04-28T03:21:41;100860.13;;;12.70;35.00
11648;BME280;5880;52.342;9.662;2023-04-28T03:24:06;100857.28;;;12.65;34.95
11648;BME280;5880;52.342;9.662;2023-04-28T03:26:33;100852.88;;;12.64;35.40
11648;BME280;5880;52.342;9.662;2023-04-28T03:28:59;100854.19;;;12.61;35.50
11648;BME280;5880;52.342;9.662;2023-04-28T03:31:24;100855.03;;;12.62;35.46
11648;BME280;5880;52.342;9.662;2023-04-28T03:33:50;100849.78;;;12.60;35.27
11648;BME280;5880;52.342;9.662;2023-04-28T03:36:16;100842.88;;;12.58;35.37
11648;BME280;5880;52.342;9.662;2023-04-28T03:38:42;100848.59;;;12.56;35.40
11648;BME280;5880;52.342;9.662;2023-04-28T03:41:08;100841.69;;;12.54;35.46
11648;BME280;5880;52.342;9.662;2023-04-28T03:43:33;100831.19;;;12.51;35.26
11648;BME280;5880;52.342;9.662;2023-04-28T03:46:03;100830.59;;;12.49;35.52
11648;BME280;5880;52.342;9.662;2023-04-28T03:48:28;100835.25;;;12.48;35.50
11648;BME280;5880;52.342;9.662;2023-04-28T03:50:54;100832.16;;;12.44;35.54
11648;BME280;5880;52.342;9.662;2023-04-28T03:53:20;100821.19;;;12.44;35.44
11648;BME280;5880;52.342;9.662;2023-04-28T03:55:45;100818.66;;;12.43;35.71
11648;BME280;5880;52.342;9.662;2023-04-28T03:58:11;100836.31;;;12.47;35.63
11648;BME280;5880;52.342;9.662;2023-04-28T04:00:37;100826.19;;;12.48;35.62
11648;BME280;5880;52.342;9.662;2023-04-28T04:03:03;100816.31;;;12.46;35.52
11648;BME280;5880;52.342;9.662;2023-04-28T04:05:28;100819.03;;;12.46;35.53
11648;BME280;5880;52.342;9.662;2023-04-28T04:07:54;100810.59;;;12.48;35.48
11648;BME280;5880;52.342;9.662;2023-04-28T04:10:20;100810.59;;;12.48;35.44
11648;BME280;5880;52.342;9.662;2023-04-28T04:12:46;100803.53;;;12.52;35.46
11648;BME280;5880;52.342;9.662;2023-04-28T04:15:12;100803.06;;;12.55;35.61
11648;BME280;5880;52.342;9.662;2023-04-28T04:17:37;100799.22;;;12.56;35.44
11648;BME280;5880;52.342;9.662;2023-04-28T04:20:04;100796.50;;;12.56;35.38
11648;BME280;5880;52.342;9.662;2023-04-28T04:22:30;100799.00;;;12.58;35.41
11648;BME280;5880;52.342;9.662;2023-04-28T04:24:55;100800.66;;;12.59;35.88
11648;BME280;5880;52.342;9.662;2023-04-28T04:27:21;100796.84;;;12.60;35.81
11648;BME280;5880;52.342;9.662;2023-04-28T04:29:47;100797.31;;;12.57;35.65
11648;BME280;5880;52.342;9.662;2023-04-28T04:32:12;100796.38;;;12.63;35.62
11648;BME280;5880;52.342;9.662;2023-04-28T04:34:38;100797.19;;;12.63;35.80
11648;BME280;5880;52.342;9.662;2023-04-28T04:37:03;100786.22;;;12.63;35.56
11648;BME280;5880;52.342;9.662;2023-04-28T04:39:29;100786.22;;;12.63;35.56
11648;BME280;5880;52.342;9.662;2023-04-28T04:41:55;100787.91;;;12.64;35.78
11648;BME280;5880;52.342;9.662;2023-04-28T04:44:20;100787.66;;;12.66;35.98
11648;BME280;5880;52.342;9.662;2023-04-28T04:46:47;100795.41;;;12.69;35.95
11648;BME280;5880;52.342;9.662;2023-04-28T04:49:12;100784.44;;;12.69;35.82
11648;BME280;5880;52.342;9.662;2023-04-28T04:51:38;100781.09;;;12.67;35.96
11648;BME280;5880;52.342;9.662;2023-04-28T04:54:04;100781.44;;;12.71;35.75
11648;BME280;5880;52.342;9.662;2023-04-28T04:56:29;100779.06;;;12.74;35.83
11648;BME280;5880;52.342;9.662;2023-04-28T04:58:56;100785.72;;;12.78;35.94
11648;BME280;5880;52.342;9.662;2023-04-28T05:01:21;100782.72;;;12.80;36.02
11648;BME280;5880;52.342;9.662;2023-04-28T05:03:47;100791.06;;;12.85;36.10
11648;BME280;5880;52.342;9.662;2023-04-28T05:06:13;100782.59;;;12.86;36.06
11648;BME280;5880;52.342;9.662;2023-04-28T05:08:38;100775.78;;;12.89;35.99
11648;BME280;5880;52.342;9.662;2023-04-28T05:11:04;100774.72;;;12.90;35.84
11648;BME280;5880;52.342;9.662;2023-04-28T05:13:30;100777.78;;;12.94;36.07
11648;BME280;5880;52.342;9.662;2023-04-28T05:15:55;100776.47;;;12.96;36.11
11648;BME280;5880;52.342;9.662;2023-04-28T05:18:21;100763.34;;;12.98;36.12
11648;BME280;5880;52.342;9.662;2023-04-28T05:20:47;100774.19;;;13.05;36.10
11648;BME280;5880;52.342;9.662;2023-04-28T05:23:13;100770.34;;;13.06;35.91
11648;BME280;5880;52.342;9.662;2023-04-28T05:25:38;100761.88;;;13.07;36.05
11648;BME280;5880;52.342;9.662;2023-04-28T05:28:04;100765.19;;;13.09;35.90
11648;BME280;5880;52.342;9.662;2023-04-28T05:30:32;100767.72;;;13.11;35.99
11648;BME280;5880;52.342;9.662;2023-04-28T05:32:58;100763.66;;;13.14;36.00
11648;BME280;5880;52.342;9.662;2023-04-28T05:35:25;100762.03;;;13.18;36.25
11648;BME280;5880;52.342;9.662;2023-04-28T05:37:50;100758.56;;;13.22;36.23
11648;BME280;5880;52.342;9.662;2023-04-28T05:40:16;100750.34;;;13.22;36.03
11648;BME280;5880;52.342;9.662;2023-04-28T05:42:42;100753.22;;;13.27;36.23
11648;BME280;5880;52.342;9.662;2023-04-28T05:45:08;100759.88;;;13.32;36.14
11648;BME280;5880;52.342;9.662;2023-04-28T05:47:34;100748.41;;;13.35;36.05
11648;BME280;5880;52.342;9.662;2023-04-28T05:50:00;100748.50;;;13.40;36.28
11648;BME280;5880;52.342;9.662;2023-04-28T05:52:25;100750.16;;;13.41;36.03
11648;BME280;5880;52.342;9.662;2023-04-28T05:54:51;100751.31;;;13.45;36.24
11648;BME280;5880;52.342;9.662;2023-04-28T05:57:17;100743.91;;;13.45;36.18
11648;BME280;5880;52.342;9.662;2023-04-28T05:59:42;100753.56;;;13.48;36.22
11648;BME280;5880;52.342;9.662;2023-04-28T06:02:08;100745.91;;;13.50;36.25
11648;BME280;5880;52.342;9.662;2023-04-28T06:04:33;100745.41;;;13.53;36.24
11648;BME280;5880;52.342;9.662;2023-04-28T06:06:59;100729.69;;;13.48;36.37
11648;BME280;5880;52.342;9.662;2023-04-28T06:09:25;100734.78;;;13.57;36.30
11648;BME280;5880;52.342;9.662;2023-04-28T06:11:51;100737.00;;;13.60;36.48
11648;BME280;5880;52.342;9.662;2023-04-28T06:14:16;100736.25;;;13.64;36.39
11648;BME280;5880;52.342;9.662;2023-04-28T06:16:42;100734.94;;;13.67;36.53
11648;BME280;5880;52.342;9.662;2023-04-28T06:19:08;100725.28;;;13.64;36.43
11648;BME280;5880;52.342;9.662;2023-04-28T06:21:34;100735.84;;;13.72;36.48
11648;BME280;5880;52.342;9.662;2023-04-28T06:24:00;100737.59;;;13.79;36.51
11648;BME280;5880;52.342;9.662;2023-04-28T06:26:26;100733.84;;;13.85;36.64
11648;BME280;5880;52.342;9.662;2023-04-28T06:28:52;100732.84;;;13.91;36.79
11648;BME280;5880;52.342;9.662;2023-04-28T06:31:17;100750.81;;;13.99;36.91
11648;BME280;5880;52.342;9.662;2023-04-28T06:33:43;100738.31;;;14.08;36.84
11648;BME280;5880;52.342;9.662;2023-04-28T06:36:09;100740.13;;;14.19;36.86
11648;BME280;5880;52.342;9.662;2023-04-28T06:38:39;100725.03;;;14.22;36.85
11648;BME280;5880;52.342;9.662;2023-04-28T06:41:05;100746.41;;;14.36;36.80
11648;BME280;5880;52.342;9.662;2023-04-28T06:43:31;100751.72;;;14.43;36.75
11648;BME280;5880;52.342;9.662;2023-04-28T06:45:58;100753.69;;;14.48;36.61
11648;BME280;5880;52.342;9.662;2023-04-28T06:48:23;100753.19;;;14.51;36.54
11648;BME280;5880;52.342;9.662;2023-04-28T06:50:50;100747.78;;;14.56;36.62
11648;BME280;5880;52.342;9.662;2023-04-28T06:53:16;100740.16;;;14.63;36.73
11648;BME280;5880;52.342;9.662;2023-04-28T06:55:42;100726.22;;;14.70;36.82
11648;BME280;5880;52.342;9.662;2023-04-28T06:58:07;100724.16;;;14.82;36.81
11648;BME280;5880;52.342;9.662;2023-04-28T07:00:33;100722.63;;;14.91;36.92
11648;BME280;5880;52.342;9.662;2023-04-28T07:03:00;100724.16;;;15.09;36.91
11648;BME280;5880;52.342;9.662;2023-04-28T07:05:26;100719.69;;;15.30;37.48
11648;BME280;5880;52.342;9.662;2023-04-28T07:07:52;100724.94;;;15.64;37.60
11648;BME280;5880;52.342;9.662;2023-04-28T07:10:18;100715.25;;;15.94;37.76
11648;BME280;5880;52.342;9.662;2023-04-28T07:12:43;100709.38;;;16.28;37.79
11648;BME280;5880;52.342;9.662;2023-04-28T07:15:10;100709.50;;;16.58;37.34
11648;BME280;5880;52.342;9.662;2023-04-28T07:17:36;100695.75;;;16.74;36.71
11648;BME280;5880;52.342;9.662;2023-04-28T07:20:03;100707.44;;;16.86;36.36
11648;BME280;5880;52.342;9.662;2023-04-28T07:22:29;100705.75;;;16.90;36.02
11648;BME280;5880;52.342;9.662;2023-04-28T07:24:55;100707.44;;;16.91;36.16
11648;BME280;5880;52.342;9.662;2023-04-28T07:27:22;100714.59;;;16.92;36.15
11648;BME280;5880;52.342;9.662;2023-04-28T07:29:50;100710.47;;;16.90;35.97
11648;BME280;5880;52.342;9.662;2023-04-28T07:32:15;100704.94;;;16.90;35.81
11648;BME280;5880;52.342;9.662;2023-04-28T07:34:42;100704.38;;;16.87;35.62
11648;BME280;5880;52.342;9.662;2023-04-28T07:37:08;100701.06;;;16.85;35.82
11648;BME280;5880;52.342;9.662;2023-04-28T07:39:35;100705.50;;;16.92;35.69
11648;BME280;5880;52.342;9.662;2023-04-28T07:42:03;100701.09;;;16.91;35.55
11648;BME280;5880;52.342;9.662;2023-04-28T07:44:30;100704.38;;;16.93;35.92
11648;BME280;5880;52.342;9.662;2023-04-28T07:46:56;100701.63;;;16.93;35.78
11648;BME280;5880;52.342;9.662;2023-04-28T07:49:21;100706.31;;;16.92;35.66
11648;BME280;5880;52.342;9.662;2023-04-28T07:51:47;100698.59;;;16.94;35.48
11648;BME280;5880;52.342;9.662;2023-04-28T07:54:14;100700.81;;;16.92;35.30
11648;BME280;5880;52.342;9.662;2023-04-28T07:56:39;100702.19;;;16.90;35.35
11648;BME280;5880;52.342;9.662;2023-04-28T07:59:05;100691.94;;;16.85;35.56
11648;BME280;5880;52.342;9.662;2023-04-28T08:01:31;100688.38;;;16.84;35.44
11648;BME280;5880;52.342;9.662;2023-04-28T08:03:56;100693.63;;;16.86;35.43
11648;BME280;5880;52.342;9.662;2023-04-28T08:06:22;100675.69;;;16.83;35.36
11648;BME280;5880;52.342;9.662;2023-04-28T08:08:48;100678.97;;;16.85;35.46
11648;BME280;5880;52.342;9.662;2023-04-28T08:11:14;100679.53;;;16.87;35.24
11648;BME280;5880;52.342;9.662;2023-04-28T08:13:39;100680.66;;;16.86;35.32
11648;BME280;5880;52.342;9.662;2023-04-28T08:16:05;100670.44;;;16.87;35.62
11648;BME280;5880;52.342;9.662;2023-04-28T08:18:31;100682.59;;;16.96;35.61
11648;BME280;5880;52.342;9.662;2023-04-28T08:20:57;100674.06;;;16.98;35.39
11648;BME280;5880;52.342;9.662;2023-04-28T08:23:23;100677.91;;;16.97;35.44
11648;BME280;5880;52.342;9.662;2023-04-28T08:25:52;100673.50;;;17.01;35.38
11648;BME280;5880;52.342;9.662;2023-04-28T08:28:18;100664.66;;;16.99;35.22
11648;BME280;5880;52.342;9.662;2023-04-28T08:30:44;100667.16;;;17.00;35.22
11648;BME280;5880;52.342;9.662;2023-04-28T08:33:09;100671.56;;;17.01;35.30
11648;BME280;5880;52.342;9.662;2023-04-28T08:35:35;100666.84;;;17.02;35.21
11648;BME280;5880;52.342;9.662;2023-04-28T08:38:01;100666.59;;;17.03;35.55
11648;BME280;5880;52.342;9.662;2023-04-28T08:40:26;100656.09;;;17.05;35.26
11648;BME280;5880;52.342;9.662;2023-04-28T08:42:55;100671.84;;;17.15;35.39
11648;BME280;5880;52.342;9.662;2023-04-28T08:45:23;100664.94;;;17.18;35.30
11648;BME280;5880;52.342;9.662;2023-04-28T08:47:50;100664.69;;;17.19;35.27
11648;BME280;5880;52.342;9.662;2023-04-28T08:50:21;100671.31;;;17.23;35.41
11648;BME280;5880;52.342;9.662;2023-04-28T08:52:49;100666.63;;;17.24;35.45
11648;BME280;5880;52.342;9.662;2023-04-28T08:55:17;100662.19;;;17.23;35.24
11648;BME280;5880;52.342;9.662;2023-04-28T08:57:48;100664.13;;;17.22;35.25
11648;BME280;5880;52.342;9.662;2023-04-28T09:00:14;100668.81;;;17.22;35.20
11648;BME280;5880;52.342;9.662;2023-04-28T09:02:40;100656.66;;;17.18;35.22
11648;BME280;5880;52.342;9.662;2023-04-28T09:05:10;100652.50;;;17.20;35.14
11648;BME280;5880;52.342;9.662;2023-04-28T09:07:36;100652.50;;;17.15;35.09
11648;BME280;5880;52.342;9.662;2023-04-28T09:10:18;100659.72;;;17.16;35.18
11648;BME280;5880;52.342;9.662;2023-04-28T09:12:45;100652.25;;;17.12;35.50
11648;BME280;5880;52.342;9.662;2023-04-28T09:15:28;100653.34;;;17.16;35.32
11648;BME280;5880;52.342;9.662;2023-04-28T09:17:55;100641.22;;;17.12;35.41
11648;BME280;5880;52.342;9.662;2023-04-28T09:20:30;100643.41;;;17.15;35.61
11648;BME280;5880;52.342;9.662;2023-04-28T09:23:21;100638.69;;;17.20;35.58
11648;BME280;5880;52.342;9.662;2023-04-28T09:26:06;100631.28;;;17.21;35.58
11648;BME280;5880;52.342;9.662;2023-04-28T09:28:34;100632.34;;;17.30;35.63
11648;BME280;5880;52.342;9.662;2023-04-28T09:31:01;100624.63;;;17.37;35.71
11648;BME280;5880;52.342;9.662;2023-04-28T09:33:27;100619.09;;;17.42;35.78
11648;BME280;5880;52.342;9.662;2023-04-28T09:35:53;100618.25;;;17.47;35.75
11648;BME280;5880;52.342;9.662;2023-04-28T09:38:21;100617.69;;;17.55;35.58
11648;BME280;5880;52.342;9.662;2023-04-28T09:40:59;100622.38;;;17.60;35.74
11648;BME280;5880;52.342;9.662;2023-04-28T09:43:33;100618.78;;;17.64;35.86
11648;BME280;5880;52.342;9.662;2023-04-28T09:46:02;100623.47;;;17.69;35.95
11648;BME280;5880;52.342;9.662;2023-04-28T09:51:01;100623.41;;;17.79;35.61
11648;BME280;5880;52.342;9.662;2023-04-28T09:53:28;100627.59;;;17.77;35.48
11648;BME280;5880;52.342;9.662;2023-04-28T09:55:57;100622.91;;;17.77;35.46
11648;BME280;5880;52.342;9.662;2023-04-28T09:58:25;100634.22;;;17.76;35.46
11648;BME280;5880;52.342;9.662;2023-04-28T10:00:56;100630.91;;;17.79;35.92
11648;BME280;5880;52.342;9.662;2023-04-28T10:03:28;100626.19;;;17.79;35.64
11648;BME280;5880;52.342;9.662;2023-04-28T10:05:57;100625.94;;;17.81;35.75
11648;BME280;5880;52.342;9.662;2023-04-28T10:08:24;100625.94;;;17.81;35.67
11648;BME280;5880;52.342;9.662;2023-04-28T10:10:51;100618.75;;;17.80;35.52
11648;BME280;5880;52.342;9.662;2023-04-28T10:13:20;100618.19;;;17.78;35.55
11648;BME280;5880;52.342;9.662;2023-04-28T10:15:47;100624.81;;;17.77;35.58
11648;BME280;5880;52.342;9.662;2023-04-28T10:18:14;100616.53;;;17.77;35.69
11648;BME280;5880;52.342;9.662;2023-04-28T10:20:46;100606.84;;;17.74;36.05
11648;BME280;5880;52.342;9.662;2023-04-28T10:26:12;100611.84;;;17.77;35.83
11648;BME280;5880;52.342;9.662;2023-04-28T10:28:50;100603.81;;;17.76;35.93
11648;BME280;5880;52.342;9.662;2023-04-28T10:31:18;100604.91;;;17.75;35.88
11648;BME280;5880;52.342;9.662;2023-04-28T10:33:48;100604.66;;;17.76;35.90
11648;BME280;5880;52.342;9.662;2023-04-28T10:36:50;100596.63;;;17.80;35.98
11648;BME280;5880;52.342;9.662;2023-04-28T10:39:17;100611.28;;;17.85;36.28
11648;BME280;5880;52.342;9.662;2023-04-28T10:41:45;100592.22;;;17.89;36.30
11648;BME280;5880;52.342;9.662;2023-04-28T10:47:09;100603.75;;;18.06;36.07
11648;BME280;5880;52.342;9.662;2023-04-28T10:55:34;100597.09;;;18.07;35.99
11648;BME280;5880;52.342;9.662;2023-04-28T11:00:47;100591.88;;;18.06;36.19
11648;BME280;5880;52.342;9.662;2023-04-28T11:03:46;100582.16;;;18.08;36.23
11648;BME280;5880;52.342;9.662;2023-04-28T11:06:26;100589.06;;;18.11;36.29
11648;BME280;5880;52.342;9.662;2023-04-28T11:17:02;100562.75;;;18.19;36.55
11648;BME280;5880;52.342;9.662;2023-04-28T11:22:03;100554.16;;;18.25;36.72
11648;BME280;5880;52.342;9.662;2023-04-28T11:24:29;100558.25;;;18.33;36.71
11648;BME280;5880;52.342;9.662;2023-04-28T11:26:57;100553.53;;;18.39;36.69
11648;BME280;5880;52.342;9.662;2023-04-28T11:29:37;100549.31;;;18.46;36.75
11648;BME280;5880;52.342;9.662;2023-04-28T11:32:07;100558.69;;;18.50;36.68
11648;BME280;5880;52.342;9.662;2023-04-28T11:34:33;100550.63;;;18.54;36.57
11648;BME280;5880;52.342;9.662;2023-04-28T11:37:00;100548.69;;;18.60;36.58
11648;BME280;5880;52.342;9.662;2023-04-28T11:39:29;100543.69;;;18.56;36.53
11648;BME280;5880;52.342;9.662;2023-04-28T11:41:56;100538.97;;;18.62;36.29
11648;BME280;5880;52.342;9.662;2023-04-28T11:44:26;100541.16;;;18.65;36.56
11648;BME280;5880;52.342;9.662;2023-04-28T11:46:59;100541.69;;;18.67;36.59
11648;BME280;5880;52.342;9.662;2023-04-28T11:49:41;100550.53;;;18.69;36.51
11648;BME280;5880;52.342;9.662;2023-04-28T11:52:09;100546.13;;;18.68;36.51
11648;BME280;5880;52.342;9.662;2023-04-28T11:54:35;100541.69;;;18.67;36.57
11648;BME280;5880;52.342;9.662;2023-04-28T11:57:02;100548.59;;;18.70;36.52
11648;BME280;5880;52.342;9.662;2023-04-28T11:59:34;100533.97;;;18.64;36.39
11648;BME280;5880;52.342;9.662;2023-04-28T12:02:06;100556.66;;;18.66;36.41
11648;BME280;5880;52.342;9.662;2023-04-28T12:04:36;100557.75;;;18.65;36.93
11648;BME280;5880;52.342;9.662;2023-04-28T12:09:37;100564.47;;;18.54;37.21
11648;BME280;5880;52.342;9.662;2023-04-28T12:12:12;100556.53;;;18.47;37.19
11648;BME280;5880;52.342;9.662;2023-04-28T12:17:26;100549.38;;;18.36;37.68
11648;BME280;5880;52.342;9.662;2023-04-28T12:19:54;100549.44;;;18.31;37.74
11648;BME280;5880;52.342;9.662;2023-04-28T12:22:20;100543.34;;;18.29;37.87
11648;BME280;5880;52.342;9.662;2023-04-28T12:25:05;100542.50;;;18.28;37.95
11648;BME280;5880;52.342;9.662;2023-04-28T12:27:33;100536.19;;;18.23;38.37
11648;BME280;5880;52.342;9.662;2023-04-28T12:29:59;100534.84;;;18.15;38.57
11648;BME280;5880;52.342;9.662;2023-04-28T12:32:41;100529.34;;;18.05;38.73
11648;BME280;5880;52.342;9.662;2023-04-28T12:35:08;100527.50;;;17.90;38.86
11648;BME280;5880;52.342;9.662;2023-04-28T12:37:34;100520.91;;;17.76;39.17
11648;BME280;5880;52.342;9.662;2023-04-28T12:40:00;100519.53;;;17.73;39.36
11648;BME280;5880;52.342;9.662;2023-04-28T12:42:28;100517.88;;;17.77;39.53
11648;BME280;5880;52.342;9.662;2023-04-28T12:44:54;100510.09;;;17.79;39.49
11648;BME280;5880;52.342;9.662;2023-04-28T12:47:20;100510.41;;;17.83;39.69
11648;BME280;5880;52.342;9.662;2023-04-28T12:49:45;100509.56;;;17.82;39.69
11648;BME280;5880;52.342;9.662;2023-04-28T12:52:13;100519.78;;;17.87;39.70
11648;BME280;5880;52.342;9.662;2023-04-28T12:54:39;100518.38;;;17.89;39.72
11648;BME280;5880;52.342;9.662;2023-04-28T12:57:14;100516.44;;;17.90;39.78
11648;BME280;5880;52.342;9.662;2023-04-28T12:59:42;100513.94;;;17.93;39.73
11648;BME280;5880;52.342;9.662;2023-04-28T13:02:08;100517.78;;;17.98;39.73
11648;BME280;5880;52.342;9.662;2023-04-28T13:04:33;100510.56;;;18.02;39.79
11648;BME280;5880;52.342;9.662;2023-04-28T13:06:59;100503.13;;;17.97;39.73
11648;BME280;5880;52.342;9.662;2023-04-28T13:09:26;100502.84;;;17.99;39.82
11648;BME280;5880;52.342;9.662;2023-04-28T13:11:52;100496.78;;;17.97;39.83
11648;BME280;5880;52.342;9.662;2023-04-28T13:14:21;100506.41;;;18.04;39.89
11648;BME280;5880;52.342;9.662;2023-04-28T13:16:47;100495.63;;;18.08;39.95
11648;BME280;5880;52.342;9.662;2023-04-28T13:19:13;100497.25;;;18.09;40.14
11648;BME280;5880;52.342;9.662;2023-04-28T13:21:42;100495.63;;;18.08;40.12
11648;BME280;5880;52.342;9.662;2023-04-28T13:24:09;100495.03;;;18.11;39.98
11648;BME280;5880;52.342;9.662;2023-04-28T13:26:36;100485.66;;;18.07;40.03
11648;BME280;5880;52.342;9.662;2023-04-28T13:29:05;100488.16;;;18.08;40.18
11648;BME280;5880;52.342;9.662;2023-04-28T13:31:33;100483.97;;;18.11;40.05
11648;BME280;5880;52.342;9.662;2023-04-28T13:33:59;100471.00;;;18.06;39.99